Time;durP1;ratioP1;P1;durP2;ratioP2;P2;SDS_P1;SDS_P2;PMS_P1;PMS_P2;Temp;Humidity;BMP_temperature;BMP_pressure;BME280_temperature;BME280_humidity;BME280_pressure;Samples;Min_cycle;Max_cycle;Signal;HPM_P1;HPM_P2
2022/08/21 00:01:17;;;;;;;9.40;4.05;;;;;;;12.78;100.00;155733.47;4994631;28;20038;-77
2022/08/21 00:03:43;;;;;;;8.25;4.22;;;;;;;12.76;100.00;155729.63;4996319;28;20044;-74
2022/08/21 00:06:09;;;;;;;7.80;4.25;;;;;;;12.72;100.00;155719.34;4993271;28;20770;-75
2022/08/21 00:08:35;;;;;;;9.77;4.15;;;;;;;12.68;100.00;155707.75;4989528;28;20034;-74
2022/08/21 00:11:01;;;;;;;10.98;4.35;;;;;;;12.64;100.00;155698.81;4999495;28;20157;-72
2022/08/21 00:13:27;;;;;;;11.63;4.28;;;;;;;12.57;100.00;155682.09;5025911;28;20132;-75
2022/08/21 00:15:53;;;;;;;6.55;4.10;;;;;;;12.52;100.00;155669.25;4998455;28;20042;-74
2022/08/21 00:18:19;;;;;;;7.53;3.80;;;;;;;12.50;100.00;155664.09;5014539;28;20069;-74
2022/08/21 00:20:46;;;;;;;11.85;4.00;;;;;;;12.48;100.00;155657.69;4965076;28;20034;-74
2022/08/21 00:23:13;;;;;;;8.80;3.65;;;;;;;12.39;100.00;155635.84;4982751;28;20372;-75
2022/08/21 00:25:39;;;;;;;12.23;3.80;;;;;;;12.33;100.00;155620.44;5009730;28;20487;-75
2022/08/21 00:28:06;;;;;;;8.23;3.60;;;;;;;12.38;100.00;155633.28;4967770;28;20101;-74
2022/08/21 00:30:35;;;;;;;8.90;3.88;;;;;;;12.37;100.00;155630.72;5002421;28;20037;-76
2022/08/21 00:33:01;;;;;;;10.90;3.83;;;;;;;12.32;100.00;155617.84;5017151;28;20491;-76
2022/08/21 00:35:30;;;;;;;7.40;3.47;;;;;;;12.31;100.00;155616.56;5004498;28;20040;-75
2022/08/21 00:37:56;;;;;;;7.82;3.63;;;;;;;12.33;100.00;155621.72;4994308;28;20034;-75
2022/08/21 00:40:35;;;;;;;9.00;3.70;;;;;;;12.37;100.00;155631.97;5013042;28;20052;-76
2022/08/21 00:43:03;;;;;;;8.88;3.63;;;;;;;12.38;100.00;155633.28;4991098;28;20096;-75
2022/08/21 00:45:29;;;;;;;10.32;3.97;;;;;;;12.40;100.00;155639.72;5007451;28;20049;-78
2022/08/21 00:47:55;;;;;;;11.55;4.07;;;;;;;12.42;100.00;155644.84;5007076;28;20030;-77
2022/08/21 00:50:22;;;;;;;7.10;3.83;;;;;;;12.40;100.00;155638.44;4990232;28;20069;-75
2022/08/21 00:52:50;;;;;;;8.27;3.70;;;;;;;12.44;100.00;155648.69;5006716;28;20038;-75
2022/08/21 00:55:17;;;;;;;7.85;3.65;;;;;;;12.44;100.00;155649.97;4988338;28;20038;-76
2022/08/21 00:57:47;;;;;;;7.72;3.90;;;;;;;12.47;100.00;155656.44;4991127;28;20512;-78
2022/08/21 01:00:18;;;;;;;7.68;3.55;;;;;;;12.55;100.00;155675.69;5007133;28;20029;-78
2022/08/21 01:02:44;;;;;;;7.15;4.18;;;;;;;12.65;100.00;155701.34;5013986;28;20073;-74
2022/08/21 01:05:10;;;;;;;10.63;4.90;;;;;;;12.73;100.00;155721.91;4972269;28;20042;-75
2022/08/21 01:07:36;;;;;;;7.38;4.20;;;;;;;12.68;100.00;155707.75;5034185;28;20044;-75
2022/08/21 01:10:04;;;;;;;7.88;4.20;;;;;;;12.70;100.00;155714.22;5031623;28;20041;-75
2022/08/21 01:12:30;;;;;;;10.70;4.40;;;;;;;12.74;100.00;155723.22;5033848;28;20026;-75
2022/08/21 01:14:55;;;;;;;9.23;3.95;;;;;;;12.76;100.00;155728.34;5034100;28;20542;-75
2022/08/21 01:17:21;;;;;;;8.43;3.78;;;;;;;12.81;100.00;155741.22;4997101;28;21312;-75
2022/08/21 01:19:47;;;;;;;9.63;4.25;;;;;;;12.89;100.00;155761.75;4999796;28;20038;-76
2022/08/21 01:22:13;;;;;;;10.38;4.05;;;;;;;12.87;100.00;155755.34;5018023;28;20403;-75
2022/08/21 01:24:39;;;;;;;11.57;4.38;;;;;;;12.79;100.00;155737.34;4993356;28;20034;-74
2022/08/21 01:27:05;;;;;;;8.82;4.35;;;;;;;12.76;100.00;155728.34;5000558;28;20471;-74
2022/08/21 01:29:45;;;;;;;9.63;4.25;;;;;;;12.70;100.00;155714.22;4996893;28;20120;-74
2022/08/21 01:32:15;;;;;;;12.10;4.82;;;;;;;12.68;100.00;155707.75;4965502;28;20034;-72
2022/08/21 01:34:44;;;;;;;9.73;4.32;;;;;;;12.65;100.00;155701.34;5014456;28;20057;-77
2022/08/21 01:37:11;;;;;;;8.63;4.20;;;;;;;12.64;100.00;155700.09;4985812;28;20040;-75
2022/08/21 01:39:37;;;;;;;9.88;4.20;;;;;;;12.61;100.00;155692.34;5012572;28;20097;-74
2022/08/21 01:42:04;;;;;;;9.75;3.97;;;;;;;12.62;100.00;155694.94;4985149;28;20026;-76
2022/08/21 01:44:32;;;;;;;8.38;3.90;;;;;;;12.52;100.00;155669.25;4997640;28;20049;-76
2022/08/21 01:47:00;;;;;;;9.68;4.28;;;;;;;12.41;100.00;155642.28;5000820;28;20025;-75
2022/08/21 01:49:26;;;;;;;6.68;4.35;;;;;;;12.32;100.00;155617.84;5013558;28;20176;-75
2022/08/21 01:51:52;;;;;;;14.23;4.00;;;;;;;12.22;100.00;155594.78;4985351;28;20120;-73
2022/08/21 01:54:18;;;;;;;8.40;3.90;;;;;;;12.18;100.00;155583.19;4999783;28;20042;-75
2022/08/21 01:56:46;;;;;;;9.27;4.05;;;;;;;12.14;100.00;155572.94;5018074;28;20453;-73
2022/08/21 01:59:12;;;;;;;6.45;3.70;;;;;;;12.06;100.00;155553.66;4967096;28;20483;-74
2022/08/21 02:01:39;;;;;;;8.05;4.03;;;;;;;12.03;100.00;155545.94;4999517;28;20065;-73
2022/08/21 02:04:06;;;;;;;8.07;3.33;;;;;;;11.98;100.00;155534.41;5030720;28;20064;-76
2022/08/21 02:06:31;;;;;;;6.63;3.63;;;;;;;11.95;100.00;155526.69;5011058;28;20046;-75
2022/08/21 02:08:57;;;;;;;6.72;3.75;;;;;;;11.95;100.00;155525.41;4965686;28;20038;-75
2022/08/21 02:11:25;;;;;;;8.70;3.38;;;;;;;11.90;100.00;155513.84;4968885;28;20049;-74
2022/08/21 02:13:50;;;;;;;5.25;3.15;;;;;;;11.90;100.00;155512.56;5000861;28;20035;-74
2022/08/21 02:16:16;;;;;;;7.97;3.70;;;;;;;11.91;100.00;155516.44;4980591;28;20051;-75
2022/08/21 02:18:43;;;;;;;10.77;3.65;;;;;;;11.91;100.00;155515.16;5002784;28;20065;-75
2022/08/21 02:21:08;;;;;;;4.93;3.17;;;;;;;11.86;100.00;155504.78;4966910;28;20042;-76
2022/08/21 02:23:34;;;;;;;7.85;3.60;;;;;;;11.88;100.00;155509.97;4974356;28;20538;-76
2022/08/21 02:26:02;;;;;;;8.50;3.50;;;;;;;11.88;100.00;155508.66;5007612;28;20374;-76
2022/08/21 02:28:27;;;;;;;7.53;3.53;;;;;;;11.82;100.00;155493.25;4975556;28;20049;-78
2022/08/21 02:30:55;;;;;;;5.47;3.20;;;;;;;11.75;100.00;155476.53;5021261;28;20040;-76
2022/08/21 02:33:21;;;;;;;10.95;3.45;;;;;;;11.72;100.00;155467.59;4971126;28;20073;-76
2022/08/21 02:35:48;;;;;;;6.22;3.30;;;;;;;11.64;100.00;155449.63;4984436;28;20574;-75
2022/08/21 02:38:16;;;;;;;6.10;3.42;;;;;;;11.63;100.00;155445.75;5001208;28;20040;-74
2022/08/21 02:40:45;;;;;;;9.02;3.97;;;;;;;11.57;100.00;155430.38;4990860;28;20120;-77
2022/08/21 02:43:10;;;;;;;10.15;3.50;;;;;;;11.53;100.00;155421.38;4968911;28;20427;-76
2022/08/21 02:45:37;;;;;;;9.32;3.92;;;;;;;11.47;100.00;155405.94;4993555;28;20132;-77
2022/08/21 02:48:07;;;;;;;7.40;3.65;;;;;;;11.49;100.00;155411.13;5002188;28;20068;-77
2022/08/21 02:50:40;;;;;;;7.68;3.55;;;;;;;11.47;100.00;155407.25;5032517;28;20423;-74
2022/08/21 02:53:08;;;;;;;8.95;3.97;;;;;;;11.48;100.00;155409.81;4997024;28;20038;-75
2022/08/21 02:55:35;;;;;;;5.47;3.35;;;;;;;11.53;100.00;155420.06;5006150;28;20184;-75
2022/08/21 02:58:02;;;;;;;7.75;4.10;;;;;;;11.59;100.00;155435.50;5006487;28;20041;-75
2022/08/21 03:00:31;;;;;;;7.85;3.75;;;;;;;11.59;100.00;155436.78;4995474;28;20510;-75
2022/08/21 03:02:59;;;;;;;8.82;3.50;;;;;;;11.60;100.00;155438.03;5005499;28;20042;-74
2022/08/21 03:05:27;;;;;;;5.38;3.20;;;;;;;11.56;100.00;155429.06;5004481;28;20049;-74
2022/08/21 03:07:52;;;;;;;6.70;3.25;;;;;;;11.53;100.00;155420.06;5004429;28;20068;-75
2022/08/21 03:10:22;;;;;;;8.27;3.20;;;;;;;11.49;100.00;155412.38;4986432;28;20065;-74
2022/08/21 03:12:48;;;;;;;6.82;3.33;;;;;;;11.47;100.00;155405.94;5013920;28;20058;-74
2022/08/21 03:15:17;;;;;;;5.75;3.20;;;;;;;11.45;100.00;155402.13;4997462;28;20054;-74
2022/08/21 03:17:43;;;;;;;9.32;3.60;;;;;;;11.39;100.00;155385.41;5002566;28;20112;-74
2022/08/21 03:20:10;;;;;;;6.32;3.28;;;;;;;11.33;100.00;155371.31;5002107;28;20058;-75
2022/08/21 03:22:35;;;;;;;10.57;3.28;;;;;;;11.29;100.00;155362.31;5007519;28;20044;-74
2022/08/21 03:25:02;;;;;;;7.25;3.47;;;;;;;11.23;100.00;155345.66;5005962;28;20030;-75
2022/08/21 03:27:30;;;;;;;9.43;3.65;;;;;;;11.22;100.00;155343.06;5021709;28;20070;-74
2022/08/21 03:29:56;;;;;;;7.70;3.50;;;;;;;11.27;100.00;155355.91;5000684;28;20451;-76
2022/08/21 03:32:22;;;;;;;8.68;3.15;;;;;;;11.31;100.00;155366.16;4987462;28;20783;-75
2022/08/21 03:34:48;;;;;;;7.40;3.95;;;;;;;11.31;100.00;155366.16;4999224;28;20041;-75
2022/08/21 03:37:15;;;;;;;4.90;2.75;;;;;;;11.31;100.00;155366.16;4983686;28;20061;-75
2022/08/21 03:39:41;;;;;;;9.90;3.60;;;;;;;11.29;100.00;155361.03;5006558;28;20044;-75
2022/08/21 03:42:07;;;;;;;6.15;3.70;;;;;;;11.22;100.00;155343.06;4989423;28;20042;-74
2022/08/21 03:44:34;;;;;;;6.68;2.92;;;;;;;11.18;100.00;155334.06;5003545;28;20034;-76
2022/08/21 03:47:00;;;;;;;5.95;3.50;;;;;;;11.20;100.00;155337.94;5022016;28;20033;-75
2022/08/21 03:49:27;;;;;;;6.47;3.10;;;;;;;11.19;100.00;155336.66;4985119;28;20044;-75
2022/08/21 03:51:56;;;;;;;7.72;3.35;;;;;;;11.13;100.00;155319.97;4991183;28;20062;-75
2022/08/21 03:54:22;;;;;;;8.68;3.30;;;;;;;11.06;100.00;155304.56;4974667;28;20052;-77
2022/08/21 03:56:47;;;;;;;6.90;3.20;;;;;;;11.01;100.00;155291.72;4992053;28;20038;-73
2022/08/21 03:59:13;;;;;;;8.77;2.92;;;;;;;10.84;100.00;155248.09;5025506;28;20041;-74
2022/08/21 04:01:39;;;;;;;6.28;3.05;;;;;;;10.83;100.00;155246.84;4998819;28;20121;-75
2022/08/21 04:04:05;;;;;;;11.88;3.15;;;;;;;10.80;100.00;155239.13;4970042;28;20335;-75
2022/08/21 04:06:33;;;;;;;7.78;3.28;;;;;;;10.75;100.00;155226.28;5021838;28;20064;-74
2022/08/21 04:08:58;;;;;;;6.75;3.47;;;;;;;10.74;100.00;155223.72;5005426;28;20049;-77
2022/08/21 04:11:24;;;;;;;5.82;2.95;;;;;;;10.76;100.00;155227.59;5037490;28;20034;-74
2022/08/21 04:13:50;;;;;;;5.45;2.72;;;;;;;10.77;100.00;155231.41;5006524;28;20452;-76
2022/08/21 04:16:15;;;;;;;4.88;3.13;;;;;;;10.76;100.00;155228.88;4979823;28;20034;-76
2022/08/21 04:18:42;;;;;;;4.30;2.90;;;;;;;10.74;100.00;155222.41;4998846;28;20038;-75
2022/08/21 04:21:10;;;;;;;3.95;3.08;;;;;;;10.71;100.00;155217.28;5004900;28;20022;-76
2022/08/21 04:23:36;;;;;;;5.78;3.25;;;;;;;10.75;100.00;155226.28;5020678;28;20552;-75
2022/08/21 04:26:02;;;;;;;9.25;3.28;;;;;;;10.81;100.00;155241.69;5028004;28;20022;-75
2022/08/21 04:28:27;;;;;;;8.88;4.05;;;;;;;10.84;100.00;155248.09;4998968;28;20479;-74
2022/08/21 04:30:54;;;;;;;6.15;3.72;;;;;;;10.91;100.00;155266.06;5020049;28;20391;-74
2022/08/21 04:33:22;;;;;;;9.02;3.63;;;;;;;10.90;100.00;155263.50;5004527;28;20396;-75
2022/08/21 04:35:49;;;;;;;8.98;3.75;;;;;;;10.89;100.00;155260.94;5002906;28;20128;-76
2022/08/21 04:38:14;;;;;;;7.80;3.50;;;;;;;10.93;100.00;155269.94;5035655;28;20045;-76
2022/08/21 04:40:40;;;;;;;6.38;3.78;;;;;;;11.06;100.00;155303.28;5015334;28;20032;-75
2022/08/21 04:43:09;;;;;;;8.18;3.67;;;;;;;11.15;100.00;155326.41;4962886;28;20085;-74
2022/08/21 04:45:40;;;;;;;8.57;4.32;;;;;;;11.22;100.00;155344.34;5030166;28;20123;-74
2022/08/21 04:48:08;;;;;;;8.60;3.88;;;;;;;11.28;100.00;155359.78;5026638;28;20048;-74
2022/08/21 04:50:44;;;;;;;7.47;4.20;;;;;;;11.39;100.00;155385.41;5005100;28;20034;-75
2022/08/21 04:53:17;;;;;;;7.53;4.43;;;;;;;11.45;100.00;155400.81;5006390;28;20108;-75
2022/08/21 04:55:45;;;;;;;8.00;4.32;;;;;;;11.54;100.00;155422.66;5019475;28;20041;-77
2022/08/21 04:58:17;;;;;;;9.05;4.40;;;;;;;11.64;100.00;155448.31;5037946;28;20483;-76
2022/08/21 05:00:43;;;;;;;12.55;5.55;;;;;;;11.72;100.00;155467.59;4994315;28;20117;-76
2022/08/21 05:03:11;;;;;;;10.02;5.20;;;;;;;11.90;100.00;155513.84;5004329;28;20038;-77
2022/08/21 05:05:37;;;;;;;8.00;4.93;;;;;;;12.07;100.00;155557.53;5002107;28;20046;-77
2022/08/21 05:08:03;;;;;;;7.75;5.32;;;;;;;12.16;100.00;155579.34;5003946;28;20072;-77
2022/08/21 05:10:31;;;;;;;8.23;4.57;;;;;;;12.30;100.00;155612.72;5003275;28;20089;-75
2022/08/21 05:12:57;;;;;;;9.20;4.57;;;;;;;12.39;100.00;155637.13;5003049;28;20100;-75
2022/08/21 05:15:22;;;;;;;8.77;3.85;;;;;;;12.44;100.00;155648.69;5007220;28;20319;-75
2022/08/21 05:17:50;;;;;;;11.38;4.53;;;;;;;12.50;100.00;155662.81;5021453;28;20479;-75
2022/08/21 05:20:16;;;;;;;7.22;4.50;;;;;;;12.58;100.00;155683.38;5036479;28;20092;-75
2022/08/21 05:22:42;;;;;;;10.00;4.30;;;;;;;12.63;100.00;155697.50;4987377;28;20061;-76
2022/08/21 05:25:09;;;;;;;8.85;4.20;;;;;;;12.71;100.00;155716.75;4991183;28;20121;-75
2022/08/21 05:27:35;;;;;;;6.68;3.90;;;;;;;12.75;100.00;155727.06;5015271;28;20077;-77
2022/08/21 05:30:02;;;;;;;8.07;4.00;;;;;;;12.81;100.00;155741.22;5001445;28;20073;-76
2022/08/21 05:32:28;;;;;;;7.20;4.35;;;;;;;12.85;100.00;155752.75;4996810;28;20035;-76
2022/08/21 05:34:54;;;;;;;6.75;4.13;;;;;;;12.93;100.00;155770.75;4986097;28;20083;-75
2022/08/21 05:37:20;;;;;;;8.52;3.80;;;;;;;12.99;100.00;155787.41;5016077;28;20535;-74
2022/08/21 05:39:45;;;;;;;10.02;4.70;;;;;;;13.13;100.00;155822.16;5003003;28;20038;-75
2022/08/21 05:42:11;;;;;;;9.02;3.92;;;;;;;13.21;100.00;155842.69;5016070;28;20046;-74
2022/08/21 05:44:37;;;;;;;9.10;4.57;;;;;;;13.28;100.00;155859.41;5002955;28;20030;-76
2022/08/21 05:47:05;;;;;;;7.45;4.30;;;;;;;13.39;100.00;155887.75;4991236;28;20539;-76
2022/08/21 05:49:31;;;;;;;8.95;4.93;;;;;;;13.41;100.00;155892.88;4986428;28;20534;-75
2022/08/21 05:51:57;;;;;;;9.60;4.25;;;;;;;13.48;100.00;155909.56;4986291;28;20038;-76
2022/08/21 05:54:23;;;;;;;8.90;4.10;;;;;;;13.49;100.00;155912.16;4998656;28;20033;-76
2022/08/21 05:56:48;;;;;;;10.25;3.97;;;;;;;13.48;100.00;155908.28;5006897;28;20141;-75
2022/08/21 05:59:14;;;;;;;6.35;4.15;;;;;;;13.54;100.00;155925.03;5018889;28;20120;-75
2022/08/21 06:01:40;;;;;;;7.20;3.78;;;;;;;13.54;100.00;155923.69;4999952;28;20484;-76
2022/08/21 06:04:06;;;;;;;7.63;3.55;;;;;;;13.58;100.00;155935.28;4965723;28;20034;-76
2022/08/21 06:06:33;;;;;;;9.02;3.35;;;;;;;13.62;100.00;155945.56;5035170;28;20503;-77
2022/08/21 06:08:59;;;;;;;7.25;3.55;;;;;;;13.65;100.00;155951.97;5002126;28;20029;-75
2022/08/21 06:11:25;;;;;;;5.32;3.28;;;;;;;13.76;100.00;155978.97;5022732;28;20046;-77
2022/08/21 06:13:50;;;;;;;12.57;4.15;;;;;;;13.79;100.00;155986.72;4984530;28;20030;-76
2022/08/21 06:16:17;;;;;;;7.18;3.50;;;;;;;13.74;100.00;155975.13;4972057;28;20029;-76
2022/08/21 06:18:44;;;;;;;7.15;3.50;;;;;;;13.73;100.00;155971.25;4984211;28;20077;-75
2022/08/21 06:21:11;;;;;;;9.13;3.63;;;;;;;13.70;100.00;155963.56;4996073;28;20045;-74
2022/08/21 06:23:37;;;;;;;6.55;3.17;;;;;;;13.77;100.00;155982.84;5014242;28;20045;-75
2022/08/21 06:26:04;;;;;;;6.82;3.47;;;;;;;13.80;100.00;155990.53;4978690;28;20030;-74
2022/08/21 06:28:30;;;;;;;5.95;3.63;;;;;;;13.79;100.00;155986.72;4999554;28;20022;-74
2022/08/21 06:30:56;;;;;;;6.13;3.38;;;;;;;13.88;100.00;156009.84;5009196;28;20463;-76
2022/08/21 06:33:21;;;;;;;8.13;3.75;;;;;;;13.93;100.00;156021.41;5004731;28;20048;-75
2022/08/21 06:35:48;;;;;;;5.97;3.03;;;;;;;14.01;100.00;156041.97;5036111;28;20543;-76
2022/08/21 06:38:13;;;;;;;9.32;3.50;;;;;;;14.10;100.00;156065.09;5002322;28;20040;-76
2022/08/21 06:40:39;;;;;;;7.45;3.63;;;;;;;14.17;100.00;156081.84;4989612;28;20038;-75
2022/08/21 06:43:11;;;;;;;6.47;3.10;;;;;;;14.27;100.00;156106.28;5027914;28;20042;-76
2022/08/21 06:45:37;;;;;;;5.88;3.35;;;;;;;14.31;100.00;156117.81;5041383;28;20036;-75
2022/08/21 06:48:03;;;;;;;8.45;3.30;;;;;;;14.39;100.00;156138.41;4980138;28;20026;-75
2022/08/21 06:50:29;;;;;;;8.10;2.97;;;;;;;14.49;100.00;156162.84;5020835;28;20052;-75
2022/08/21 06:53:00;;;;;;;5.88;2.92;;;;;;;14.71;100.00;156218.22;5005942;28;20038;-74
2022/08/21 06:55:26;;;;;;;8.27;2.80;;;;;;;14.94;100.00;156274.81;5004196;28;20042;-75
2022/08/21 06:57:51;;;;;;;11.32;2.55;;;;;;;15.12;100.00;156319.81;5026067;28;20043;-73
2022/08/21 07:00:17;;;;;;;5.57;2.65;;;;;;;15.12;100.00;156319.81;4970787;28;20049;-75
2022/08/21 07:02:42;;;;;;;6.47;2.72;;;;;;;15.10;100.00;156315.94;5008600;28;20044;-76
2022/08/21 07:05:08;;;;;;;5.55;2.80;;;;;;;15.03;100.00;156296.66;4992077;28;20045;-73
2022/08/21 07:07:33;;;;;;;5.22;2.50;;;;;;;15.09;100.00;156313.41;5003702;28;20037;-73
2022/08/21 07:09:59;;;;;;;7.65;2.70;;;;;;;15.19;100.00;156339.09;4990466;28;20030;-74
2022/08/21 07:12:25;;;;;;;6.32;2.50;;;;;;;15.24;100.00;156350.72;5007051;28;20038;-75
2022/08/21 07:14:51;;;;;;;7.32;2.90;;;;;;;15.35;100.00;156379.03;5016339;28;20034;-76
2022/08/21 07:17:17;;;;;;;9.07;2.50;;;;;;;15.39;100.00;156388.03;5015584;28;20038;-74
2022/08/21 07:19:43;;;;;;;3.90;2.30;;;;;;;15.49;100.00;156412.47;5004789;28;20037;-74
2022/08/21 07:22:09;;;;;;;4.78;2.22;;;;;;;15.60;100.00;156440.78;5008125;28;20036;-74
2022/08/21 07:24:34;;;;;;;6.53;2.83;;;;;;;15.98;100.00;156536.06;5003237;28;20514;-74
2022/08/21 07:27:00;;;;;;;4.95;2.42;;;;;;;16.23;100.00;156599.13;5000547;28;20033;-76
2022/08/21 07:29:25;;;;;;;7.82;1.90;;;;;;;16.53;100.00;156675.09;4995911;28;20057;-78
2022/08/21 07:31:51;;;;;;;6.88;1.92;;;;;;;16.65;100.00;156703.41;5021455;28;20034;-75
2022/08/21 07:34:17;;;;;;;6.68;2.22;;;;;;;16.81;100.00;156744.63;5034815;28;20080;-73
2022/08/21 07:36:42;;;;;;;4.22;1.65;;;;;;;16.96;100.00;156782.03;4999410;28;20412;-74
2022/08/21 07:39:08;;;;;;;5.75;1.80;;;;;;;17.12;100.00;156823.25;5014490;28;20038;-76
2022/08/21 07:41:35;;;;;;;6.32;1.83;;;;;;;17.22;100.00;156846.44;5002768;28;20064;-75
2022/08/21 07:44:01;;;;;;;4.00;1.77;;;;;;;17.36;100.00;156882.50;5001412;28;20589;-74
2022/08/21 07:46:27;;;;;;;5.15;1.77;;;;;;;17.52;100.00;156923.72;5023662;28;20033;-76
2022/08/21 07:48:53;;;;;;;7.40;1.83;;;;;;;17.77;98.56;156984.28;5007382;28;20041;-75
2022/08/21 07:51:23;;;;;;;3.70;1.67;;;;;;;17.87;96.43;157011.38;5003433;28;20034;-75
2022/08/21 07:53:51;;;;;;;5.70;1.52;;;;;;;18.05;96.31;157056.50;5007211;28;20579;-76
2022/08/21 07:56:18;;;;;;;4.95;1.75;;;;;;;18.19;93.65;157091.28;5009555;28;20022;-76
2022/08/21 07:58:43;;;;;;;5.95;1.50;;;;;;;18.28;91.50;157114.47;5037272;28;20060;-76
2022/08/21 08:01:09;;;;;;;5.78;1.60;;;;;;;18.37;88.74;157135.13;5009816;28;20034;-76
2022/08/21 08:03:35;;;;;;;4.22;1.42;;;;;;;18.51;89.00;157171.19;5027624;28;20042;-75
2022/08/21 08:06:04;;;;;;;4.10;1.50;;;;;;;18.70;89.04;157217.59;5025170;28;20061;-76
2022/08/21 08:08:30;;;;;;;4.55;1.45;;;;;;;18.97;87.76;157286.00;5000347;28;20038;-78
2022/08/21 08:10:57;;;;;;;3.92;1.38;;;;;;;19.00;83.67;157295.00;5016746;28;20329;-76
2022/08/21 08:13:24;;;;;;;7.85;1.50;;;;;;;19.20;83.24;157344.03;5003094;28;20117;-72
2022/08/21 08:15:50;;;;;;;8.48;1.65;;;;;;;19.31;84.10;157371.06;5019541;28;20061;-76
2022/08/21 08:18:15;;;;;;;5.47;1.50;;;;;;;19.43;84.40;157402.03;5003033;28;20045;-75
2022/08/21 08:20:41;;;;;;;4.57;1.20;;;;;;;19.49;82.97;157416.22;5036088;28;20104;-78
2022/08/21 08:23:10;;;;;;;4.30;1.55;;;;;;;19.60;81.95;157444.59;4991643;28;20030;-77
2022/08/21 08:25:35;;;;;;;3.75;1.40;;;;;;;19.64;82.52;157456.19;5012537;28;20037;-77
2022/08/21 08:28:01;;;;;;;7.55;1.45;;;;;;;19.59;82.83;157443.31;5003921;28;20068;-75
2022/08/21 08:30:27;;;;;;;5.88;1.90;;;;;;;19.81;84.92;157498.81;4999891;28;20038;-74
2022/08/21 08:32:52;;;;;;;4.47;1.52;;;;;;;19.75;83.74;157483.34;5007308;28;20026;-74
2022/08/21 08:35:18;;;;;;;5.72;1.67;;;;;;;19.68;84.58;157463.94;4970470;28;20068;-75
2022/08/21 08:37:45;;;;;;;4.80;1.40;;;;;;;19.50;86.41;157420.09;5015122;28;20035;-75
2022/08/21 08:40:33;;;;;;;4.82;1.40;;;;;;;19.57;86.33;157436.84;5034281;28;20022;-74
2022/08/21 08:42:59;;;;;;;6.10;1.27;;;;;;;20.02;84.01;157551.72;5001443;28;20184;-75
2022/08/21 08:45:26;;;;;;;5.95;1.90;;;;;;;20.33;82.94;157629.13;4985022;28;20068;-74
2022/08/21 08:48:00;;;;;;;5.95;1.52;;;;;;;20.68;79.35;157715.63;5036962;28;20030;-74
2022/08/21 08:50:48;;;;;;;6.85;1.30;;;;;;;21.08;77.37;157816.28;4989725;28;20034;-75
2022/08/21 08:53:29;;;;;;;5.90;1.27;;;;;;;21.36;75.51;157888.59;5005368;28;20080;-75
2022/08/21 08:55:55;;;;;;;5.90;1.20;;;;;;;21.43;74.93;157905.38;5018089;28;20029;-77
2022/08/21 08:58:26;;;;;;;5.22;1.40;;;;;;;21.65;76.22;157960.94;5005276;28;20168;-79
2022/08/21 09:00:54;;;;;;;3.95;1.40;;;;;;;21.68;73.33;157968.72;5005639;28;20486;-75
2022/08/21 09:03:22;;;;;;;3.95;1.40;;;;;;;21.87;74.14;158016.50;5022964;28;20077;-77
2022/08/21 09:06:12;;;;;;;5.68;1.42;;;;;;;21.87;74.21;158016.50;5006095;28;20038;-77
2022/08/21 09:09:39;;;;;;;5.78;1.48;;;;;;;22.00;72.42;158047.44;5037320;28;20046;-75
2022/08/21 09:12:28;;;;;;;8.63;1.63;;;;;;;22.31;73.61;158127.59;4947134;28;20043;-75
2022/08/21 09:15:12;;;;;;;9.52;1.95;;;;;;;22.48;71.13;158168.94;5023128;28;20052;-77
2022/08/21 09:17:47;;;;;;;6.75;1.50;;;;;;;22.70;74.08;158224.50;5001774;28;20040;-74
2022/08/21 09:20:40;;;;;;;7.70;1.52;;;;;;;22.69;70.85;158223.16;5000429;28;20515;-74
2022/08/21 09:23:25;;;;;;;7.35;1.88;;;;;;;22.82;67.93;158255.47;5004956;28;20045;-71
2022/08/21 09:26:14;;;;;;;7.00;1.58;;;;;;;22.78;70.43;158243.88;5036581;28;20044;-75
2022/08/21 09:28:42;;;;;;;7.50;1.65;;;;;;;22.96;71.57;158290.34;4993926;28;20822;-73
2022/08/21 09:31:21;;;;;;;5.85;1.45;;;;;;;23.13;69.88;158333.03;5036433;28;20144;-73
2022/08/21 09:33:47;;;;;;;8.32;1.63;;;;;;;22.74;67.88;158234.81;5003776;28;20089;-73
2022/08/21 09:36:24;;;;;;;5.93;1.70;;;;;;;22.64;69.83;158210.28;5004083;28;20034;-74
2022/08/21 09:38:54;;;;;;;5.38;1.67;;;;;;;22.90;68.12;158276.13;5022829;28;20084;-76
2022/08/21 09:41:29;;;;;;;5.82;1.90;;;;;;;23.13;71.31;158334.34;5005424;28;20037;-74
2022/08/21 09:43:55;;;;;;;6.40;1.60;;;;;;;23.34;64.60;158386.06;4997314;28;20264;-75
2022/08/21 09:46:23;;;;;;;6.30;1.90;;;;;;;23.42;64.15;158405.44;5021601;28;20487;-75
2022/08/21 09:48:53;;;;;;;9.38;1.75;;;;;;;23.33;63.79;158384.72;4985715;28;20040;-74
2022/08/21 09:51:30;;;;;;;6.63;1.65;;;;;;;23.38;64.11;158396.38;4998572;28;20386;-75
2022/08/21 09:54:05;;;;;;;11.40;2.40;;;;;;;23.62;64.91;158455.81;5004203;28;20088;-75
2022/08/21 09:59:37;;;;;;;8.20;2.00;;;;;;;23.58;65.24;158446.75;5002895;28;20050;-75
2022/08/21 10:02:22;;;;;;;7.85;1.60;;;;;;;23.69;66.37;158473.91;4986439;28;20033;-74
2022/08/21 10:05:16;;;;;;;4.78;1.42;;;;;;;23.64;67.52;158462.28;4999690;28;20034;-74
2022/08/21 10:07:42;;;;;;;5.97;1.60;;;;;;;23.63;67.60;158458.41;4980436;28;20053;-73
2022/08/21 10:10:15;;;;;;;9.00;1.90;;;;;;;24.06;63.53;158567.06;5004105;28;20060;-74
2022/08/21 10:13:11;;;;;;;9.40;1.95;;;;;;;24.46;63.51;158669.16;5001968;28;20080;-73
2022/08/21 10:16:02;;;;;;;6.25;1.60;;;;;;;24.04;61.10;158561.88;4985947;28;20407;-74
2022/08/21 10:19:03;;;;;;;5.50;1.38;;;;;;;24.15;63.10;158590.31;4997403;28;20041;-73
2022/08/21 10:21:38;;;;;;;6.72;1.73;;;;;;;24.36;60.21;158642.03;5002547;28;20537;-74
2022/08/21 10:24:10;;;;;;;4.47;1.25;;;;;;;24.15;59.84;158590.31;5030874;28;20034;-73
2022/08/21 10:27:01;;;;;;;6.13;1.40;;;;;;;24.16;59.93;158591.59;4987781;28;20050;-74
2022/08/21 10:29:44;;;;;;;9.23;1.60;;;;;;;24.25;60.52;158614.88;5006674;28;20261;-73
2022/08/21 10:32:21;;;;;;;4.68;1.25;;;;;;;24.51;60.80;158679.56;5029993;28;20068;-74
2022/08/21 10:35:07;;;;;;;5.85;1.75;;;;;;;24.79;59.44;158750.66;5016453;28;20052;-75
2022/08/21 10:37:36;;;;;;;6.63;1.30;;;;;;;25.19;56.13;158851.59;5030089;28;20136;-75
2022/08/21 10:40:15;;;;;;;7.63;1.50;;;;;;;25.40;58.54;158905.94;5002735;28;20177;-74
2022/08/21 10:43:00;;;;;;;5.65;1.30;;;;;;;25.59;55.17;158952.53;5022049;28;20045;-75
2022/08/21 10:45:51;;;;;;;6.78;1.52;;;;;;;25.50;53.64;158929.22;4993600;28;20641;-75
2022/08/21 10:48:36;;;;;;;7.37;1.50;;;;;;;25.41;55.81;158908.56;5002131;28;20034;-74
2022/08/21 10:51:40;;;;;;;6.97;1.73;;;;;;;25.14;54.75;158839.91;4998821;28;20034;-74
2022/08/21 10:54:12;;;;;;;7.38;1.60;;;;;;;25.05;54.64;158817.97;4993434;28;20164;-76
2022/08/21 10:56:40;;;;;;;7.90;1.60;;;;;;;24.74;56.69;158739.06;5003936;28;20054;-74
2022/08/21 10:59:27;;;;;;;5.50;1.50;;;;;;;24.82;56.94;158758.44;5019418;28;20038;-74
2022/08/21 11:02:14;;;;;;;8.40;1.58;;;;;;;24.73;57.19;158736.44;5017749;28;20407;-76
2022/08/21 11:05:01;;;;;;;6.80;2.00;;;;;;;24.82;58.47;158759.72;4997530;28;20034;-74
2022/08/21 11:07:53;;;;;;;4.63;1.42;;;;;;;24.34;60.00;158636.88;5002924;28;20132;-74
2022/08/21 11:10:35;;;;;;;4.03;1.10;;;;;;;23.83;59.22;158508.88;5000620;28;20038;-74
2022/08/21 11:13:05;;;;;;;;;;;;;;;23.84;60.71;158512.72;4970768;28;20045;-75
2022/08/21 11:15:58;;;;;;;5.07;1.42;;;;;;;24.58;57.19;158697.66;5024499;28;19960;-75
2022/08/21 11:18:30;;;;;;;8.68;1.48;;;;;;;24.98;54.37;158798.56;5006676;28;20037;-75
2022/08/21 11:21:06;;;;;;;5.70;1.40;;;;;;;25.43;51.99;158913.72;4999028;28;20052;-74
2022/08/21 11:23:50;;;;;;;4.13;1.20;;;;;;;25.58;49.94;158951.25;5016733;28;20045;-72
2022/08/21 11:26:28;;;;;;;4.93;1.20;;;;;;;25.81;49.75;159008.16;5009430;28;20041;-75
2022/08/21 11:29:31;;;;;;;4.93;1.50;;;;;;;26.09;48.27;159079.38;4991975;28;20128;-74
2022/08/21 11:32:03;;;;;;;3.08;1.20;;;;;;;26.19;48.64;159103.97;4980359;28;20128;-74
2022/08/21 11:34:57;;;;;;;;;;;;;;;26.15;45.78;159094.91;5020809;28;20049;-75